Time;durP1;ratioP1;P1;durP2;ratioP2;P2;SDS_P1;SDS_P2;PMS_P1;PMS_P2;Temp;Humidity;BMP_temperature;BMP_pressure;BME280_temperature;BME280_humidity;BME280_pressure;Samples;Min_cycle;Max_cycle;Signal;HPM_P1;HPM_P2
2021/08/26 10:21:57;;;;;;;;;;;;;;;;;;;;;
2021/08/26 10:24:37;;;;;;;5.82;2.05;;;18.10;89.10;;;;;;4762306;30;20031;-85
2021/08/26 10:27:30;;;;;;;;;;;;;;;;;;;;;
2021/08/26 10:30:01;;;;;;;4.72;1.77;;;18.20;88.70;;;;;;4757721;30;20031;-84
2021/08/26 10:32:34;;;;;;;;;;;18.30;88.70;;;;;;4755549;30;20070;-88
2021/08/26 10:35:23;;;;;;;4.72;2.20;;;18.30;87.50;;;;;;4754665;30;20160;-86
2021/08/26 10:37:57;;;;;;;5.57;2.30;;;18.30;87.70;;;;;;4745829;30;20031;-86
2021/08/26 10:40:26;;;;;;;7.63;2.50;;;18.30;88.00;;;;;;4770020;30;20463;-86
2021/08/26 10:42:53;;;;;;;7.18;2.38;;;18.30;87.10;;;;;;4755195;30;20035;-83
2021/08/26 10:45:45;;;;;;;5.57;1.95;;;18.30;86.80;;;;;;4767627;30;20020;-86
2021/08/26 10:48:21;;;;;;;6.10;1.90;;;18.20;86.50;;;;;;4762096;30;20077;-85
2021/08/26 10:54:26;;;;;;;8.23;2.42;;;18.30;86.00;;;;;;4759987;30;20036;-85
2021/08/26 10:57:23;;;;;;;7.55;2.35;;;18.30;86.50;;;;;;4753960;30;20116;-84
2021/08/26 10:59:54;;;;;;;7.63;2.78;;;18.50;86.40;;;;;;4769327;30;20043;-86
2021/08/26 11:02:54;;;;;;;7.05;2.90;;;18.50;86.20;;;;;;4754046;30;20101;-86
2021/08/26 11:05:47;;;;;;;12.85;3.33;;;18.50;86.50;;;;;;4754942;30;20028;-85
2021/08/26 11:08:33;;;;;;;9.70;3.17;;;18.50;86.20;;;;;;4753978;30;20118;-85
2021/08/26 11:11:29;;;;;;;10.50;3.22;;;18.50;86.00;;;;;;4742236;30;20102;-85
2021/08/26 11:14:25;;;;;;;9.05;3.33;;;18.60;86.40;;;;;;4746753;30;20040;-85
2021/08/26 11:17:07;;;;;;;10.13;3.20;;;18.60;86.90;;;;;;4768546;30;20047;-87
2021/08/26 11:19:38;;;;;;;9.68;3.60;;;18.70;86.00;;;;;;4753968;30;20052;-87
2021/08/26 11:22:24;;;;;;;;;;;18.80;85.60;;;;;;4767550;30;20209;-86
2021/08/26 11:24:54;;;;;;;12.35;3.78;;;18.80;85.40;;;;;;4768422;30;20024;-85
2021/08/26 11:27:24;;;;;;;9.43;2.97;;;18.80;85.10;;;;;;4768622;30;20047;-86
2021/08/26 11:29:51;;;;;;;8.48;3.40;;;18.90;85.60;;;;;;4753753;30;20028;-86
2021/08/26 11:32:19;;;;;;;8.65;3.30;;;19.00;84.80;;;;;;4753710;30;20123;-85
2021/08/26 11:35:08;;;;;;;9.52;2.97;;;19.10;84.20;;;;;;4753239;30;20498;-87
2021/08/26 11:37:42;;;;;;;9.50;2.97;;;19.20;84.60;;;;;;4762034;30;20036;-86
2021/08/26 11:40:40;;;;;;;7.85;3.22;;;19.30;85.10;;;;;;4739767;30;20035;-85
2021/08/26 11:43:48;;;;;;;7.13;2.85;;;19.40;84.60;;;;;;4762899;30;20047;-85
2021/08/26 11:46:15;;;;;;;8.00;2.53;;;19.40;84.50;;;;;;4751916;30;20363;-85
2021/08/26 11:49:16;;;;;;;8.15;3.35;;;19.40;84.70;;;;;;4751585;30;20619;-86
2021/08/26 11:51:56;;;;;;;;;;;;;;;;;;;;;
2021/08/26 11:54:37;;;;;;;10.20;4.05;;;19.50;83.50;;;;;;4755467;30;20452;-86
2021/08/26 11:57:13;;;;;;;;;;;19.40;82.60;;;;;;4753150;30;20038;-88
2021/08/26 11:59:49;;;;;;;9.80;3.47;;;19.40;81.90;;;;;;4753861;30;19921;-88
2021/08/26 12:02:23;;;;;;;9.35;3.90;;;19.40;82.00;;;;;;4747487;30;20059;-85
2021/08/26 12:05:22;;;;;;;;;;;;;;;;;;;;;
2021/08/26 12:21:03;;;;;;;11.55;3.97;;;19.60;83.00;;;;;;1004425;24;21120;-81
2021/08/26 12:23:49;;;;;;;10.57;3.50;;;19.60;83.10;;;;;;4759522;30;20115;-85
2021/08/26 12:29:25;;;;;;;11.88;4.45;;;19.80;82.90;;;;;;4768921;30;20046;-86
2021/08/26 12:32:32;;;;;;;10.98;3.75;;;19.90;83.40;;;;;;4760284;30;20403;-86
2021/08/26 12:35:22;;;;;;;13.57;4.60;;;20.00;83.10;;;;;;4760716;30;20040;-80
2021/08/26 12:38:21;;;;;;;;;;;;;;;;;;;;;
2021/08/26 12:41:13;;;;;;;;;;;;;;;;;;;;;
2021/08/26 12:43:56;;;;;;;10.02;4.43;;;20.20;83.20;;;;;;4768777;30;20024;-86
2021/08/26 12:46:56;;;;;;;11.07;4.35;;;20.20;83.20;;;;;;4767441;30;20024;-86
2021/08/26 12:49:45;;;;;;;13.27;4.35;;;20.30;82.80;;;;;;4757831;30;20553;-87
2021/08/26 12:52:55;;;;;;;11.30;4.40;;;20.30;82.50;;;;;;4753366;30;20463;-86
2021/08/26 12:55:33;;;;;;;;;;;;;;;;;;;;;
2021/08/26 12:59:01;;;;;;;10.32;3.80;;;20.30;82.60;;;;;;4768323;30;20036;-86
2021/08/26 13:01:49;;;;;;;9.60;3.70;;;20.20;81.40;;;;;;4742098;30;20056;-86
2021/08/26 13:05:02;;;;;;;10.00;3.75;;;20.20;81.40;;;;;;4768580;30;20036;-85
2021/08/26 13:08:09;;;;;;;;;;;;;;;;;;;;;
2021/08/26 13:10:40;;;;;;;9.15;3.65;;;20.30;82.00;;;;;;4755205;30;20043;-85
2021/08/26 13:13:37;;;;;;;11.15;3.92;;;20.40;82.20;;;;;;4761130;30;20088;-89
2021/08/26 13:16:23;;;;;;;9.13;3.80;;;20.40;81.60;;;;;;4750142;30;20059;-86
2021/08/26 13:19:03;;;;;;;8.20;3.80;;;20.40;81.30;;;;;;4754229;30;20039;-86
2021/08/26 13:21:40;;;;;;;10.02;3.88;;;20.40;80.50;;;;;;4749063;30;20064;-86
2021/08/26 13:24:28;;;;;;;9.52;3.58;;;20.40;80.10;;;;;;4748556;30;20191;-87
2021/08/26 13:27:22;;;;;;;9.77;3.67;;;20.50;80.30;;;;;;4742592;30;20036;-86
2021/08/26 13:33:10;;;;;;;;;;;;;;;;;;;;;
2021/08/26 13:35:45;;;;;;;11.38;3.78;;;20.40;80.10;;;;;;4724002;30;20407;-86
2021/08/26 13:38:21;;;;;;;11.02;4.05;;;20.40;79.60;;;;;;4734625;30;20724;-87
2021/08/26 13:40:53;;;;;;;11.60;3.53;;;20.40;80.00;;;;;;4734758;30;20090;-87
2021/08/26 13:43:35;;;;;;;;;;;;;;;;;;;;;
2021/08/26 13:46:39;;;;;;;;;;;;;;;;;;;;;
2021/08/26 13:49:38;;;;;;;6.88;2.85;;;20.40;79.00;;;;;;4736380;30;20040;-87
2021/08/26 13:52:28;;;;;;;10.55;3.42;;;20.40;79.60;;;;;;4732014;30;20048;-87
2021/08/26 13:55:14;;;;;;;;;;;;;;;;;;;;;
2021/08/26 13:57:46;;;;;;;10.30;3.00;;;20.30;78.90;;;;;;4750547;30;20051;-87
2021/08/26 14:00:25;;;;;;;11.15;3.60;;;20.20;78.00;;;;;;4752576;30;20090;-89
2021/08/26 14:03:08;;;;;;;;;;;;;;;;;;;;;
2021/08/26 14:05:37;;;;;;;7.35;3.25;;;20.20;78.10;;;;;;4730698;30;20042;-87
2021/08/26 14:08:33;;;;;;;;;;;;;;;;;;;;;
2021/08/26 14:14:10;;;;;;;10.48;2.97;;;20.30;79.20;;;;;;4746229;30;20415;-86
2021/08/26 14:16:39;;;;;;;8.88;2.85;;;20.20;79.80;;;;;;4734258;30;20033;-87
2021/08/26 14:19:27;;;;;;;10.45;3.00;;;20.20;80.20;;;;;;4744328;30;20496;-88
2021/08/26 14:22:18;;;;;;;9.60;3.30;;;20.10;80.40;;;;;;4733368;30;20059;-86
2021/08/26 14:25:38;;;;;;;;;;;;;;;;;;;;;
2021/08/26 14:28:43;;;;;;;;;;;;;;;;;;;;;
2021/08/26 14:31:39;;;;;;;9.70;3.05;;;20.10;80.60;;;;;;4737901;30;20216;-88
2021/08/26 14:34:10;;;;;;;8.45;2.95;;;20.20;80.90;;;;;;4754452;30;20043;-88
2021/08/26 14:42:58;;;;;;;9.20;3.78;;;20.40;80.80;;;;;;4752861;30;20080;-88
2021/08/26 14:45:38;;;;;;;;;;;;;;;;;;;;;
2021/08/26 14:48:30;;;;;;;;;;;20.40;79.10;;;;;;4768030;30;20032;-89
2021/08/26 14:51:32;;;;;;;;;;;;;;;;;;;;;
2021/08/26 14:55:01;;;;;;;9.25;3.25;;;20.40;78.90;;;;;;4753354;30;20332;-87
2021/08/26 14:57:29;;;;;;;10.00;3.47;;;20.40;79.00;;;;;;4764798;30;20058;-87
2021/08/26 15:00:05;;;;;;;8.43;3.10;;;20.50;79.00;;;;;;4739976;30;20047;-87
2021/08/26 15:03:03;;;;;;;9.48;3.17;;;20.60;78.40;;;;;;4737590;30;20541;-87
2021/08/26 15:05:44;;;;;;;;;;;;;;;;;;;;;
2021/08/26 15:09:09;;;;;;;7.80;3.30;;;20.60;76.30;;;;;;4752493;30;20024;-89
2021/08/26 15:11:54;;;;;;;10.88;3.83;;;20.60;76.40;;;;;;4763037;30;20047;-87
2021/08/26 15:18:09;;;;;;;;;;;;;;;;;;;;;
2021/08/26 15:20:55;;;;;;;7.75;3.20;;;20.80;78.40;;;;;;4752586;30;20047;-87
2021/08/26 15:23:24;;;;;;;8.02;3.30;;;20.90;77.90;;;;;;4728309;30;20068;-86
2021/08/26 15:26:09;;;;;;;;;;;;;;;;;;;;;
2021/08/26 15:28:38;;;;;;;7.78;3.03;;;20.90;75.70;;;;;;4768132;30;20039;-87
2021/08/26 15:31:32;;;;;;;;;;;;;;;;;;;;;
2021/08/26 15:34:21;;;;;;;6.53;2.80;;;20.90;75.60;;;;;;4769358;30;20491;-87
2021/08/26 15:36:55;;;;;;;10.80;3.20;;;20.90;76.00;;;;;;4750553;30;20123;-89
2021/08/26 15:39:47;;;;;;;7.88;3.10;;;20.90;75.10;;;;;;4752841;30;20032;-87
2021/08/26 15:42:28;;;;;;;8.20;3.15;;;20.80;74.70;;;;;;4740264;30;20134;-87
2021/08/26 15:45:05;;;;;;;9.52;3.50;;;20.80;75.10;;;;;;4727445;30;20081;-87
2021/08/26 15:48:30;;;;;;;8.82;3.30;;;20.70;74.80;;;;;;4765479;30;20032;-88
2021/08/26 15:51:11;;;;;;;;;;;;;;;;;;;;;
2021/08/26 15:56:40;;;;;;;13.32;4.05;;;20.60;75.80;;;;;;4769804;30;20054;-87
2021/08/26 15:59:17;;;;;;;11.38;3.22;;;20.50;76.90;;;;;;4754048;30;20399;-87
